sensor_id;sensor_type;location;lat;lon;timestamp;temperature;humidity
25360;DHT22;13311;51.386;0.016;2023-05-07T00:02:06;17.70;99.90
25360;DHT22;13311;51.386;0.016;2023-05-07T00:07:07;17.70;99.90
25360;DHT22;13311;51.386;0.016;2023-05-07T00:12:08;17.70;99.90
25360;DHT22;13311;51.386;0.016;2023-05-07T00:17:09;17.90;99.60
25360;DHT22;13311;51.386;0.016;2023-05-07T00:22:09;17.90;99.30
25360;DHT22;13311;51.386;0.016;2023-05-07T00:27:10;17.70;99.50
25360;DHT22;13311;51.386;0.016;2023-05-07T00:32:11;17.60;99.50
25360;DHT22;13311;51.386;0.016;2023-05-07T00:37:11;17.60;99.30
25360;DHT22;13311;51.386;0.016;2023-05-07T00:42:12;17.50;99.20
25360;DHT22;13311;51.386;0.016;2023-05-07T00:47:13;17.40;99.50
25360;DHT22;13311;51.386;0.016;2023-05-07T00:52:16;17.30;99.70
25360;DHT22;13311;51.386;0.016;2023-05-07T00:57:17;17.20;99.90
25360;DHT22;13311;51.386;0.016;2023-05-07T01:02:19;17.20;99.70
25360;DHT22;13311;51.386;0.016;2023-05-07T01:07:19;17.20;99.30
25360;DHT22;13311;51.386;0.016;2023-05-07T01:12:21;17.20;99.40
25360;DHT22;13311;51.386;0.016;2023-05-07T01:17:22;17.20;99.40
25360;DHT22;13311;51.386;0.016;2023-05-07T01:22:37;17.20;99.30
25360;DHT22;13311;51.386;0.016;2023-05-07T01:27:38;17.30;99.00
25360;DHT22;13311;51.386;0.016;2023-05-07T01:37:51;17.10;98.80
25360;DHT22;13311;51.386;0.016;2023-05-07T01:42:54;17.20;98.90
25360;DHT22;13311;51.386;0.016;2023-05-07T01:47:56;17.10;98.80
25360;DHT22;13311;51.386;0.016;2023-05-07T01:52:58;16.90;98.80
25360;DHT22;13311;51.386;0.016;2023-05-07T01:57:59;16.90;98.90
25360;DHT22;13311;51.386;0.016;2023-05-07T02:03:00;16.90;98.90
25360;DHT22;13311;51.386;0.016;2023-05-07T02:08:01;16.70;98.90
25360;DHT22;13311;51.386;0.016;2023-05-07T02:13:02;16.80;98.90
25360;DHT22;13311;51.386;0.016;2023-05-07T02:18:05;16.70;98.90
25360;DHT22;13311;51.386;0.016;2023-05-07T02:23:06;16.60;99.30
25360;DHT22;13311;51.386;0.016;2023-05-07T02:28:07;16.50;99.00
25360;DHT22;13311;51.386;0.016;2023-05-07T02:33:08;16.40;99.30
25360;DHT22;13311;51.386;0.016;2023-05-07T02:38:09;16.40;99.50
25360;DHT22;13311;51.386;0.016;2023-05-07T02:43:11;16.40;99.60
25360;DHT22;13311;51.386;0.016;2023-05-07T02:48:11;16.40;99.80
25360;DHT22;13311;51.386;0.016;2023-05-07T02:53:12;16.40;99.90
25360;DHT22;13311;51.386;0.016;2023-05-07T02:58:13;16.40;99.80
25360;DHT22;13311;51.386;0.016;2023-05-07T03:03:14;16.40;99.90
25360;DHT22;13311;51.386;0.016;2023-05-07T03:08:15;16.50;99.90
25360;DHT22;13311;51.386;0.016;2023-05-07T03:13:16;16.50;99.90
25360;DHT22;13311;51.386;0.016;2023-05-07T03:18:16;16.50;99.90
25360;DHT22;13311;51.386;0.016;2023-05-07T03:23:17;16.50;99.90
25360;DHT22;13311;51.386;0.016;2023-05-07T03:28:18;16.50;99.90
25360;DHT22;13311;51.386;0.016;2023-05-07T03:33:18;16.50;99.90
25360;DHT22;13311;51.386;0.016;2023-05-07T03:38:19;16.50;99.90
25360;DHT22;13311;51.386;0.016;2023-05-07T03:43:20;16.50;99.90
25360;DHT22;13311;51.386;0.016;2023-05-07T03:48:21;16.50;99.90
25360;DHT22;13311;51.386;0.016;2023-05-07T03:53:21;16.50;99.80
25360;DHT22;13311;51.386;0.016;2023-05-07T03:58:22;16.60;99.80
25360;DHT22;13311;51.386;0.016;2023-05-07T04:03:23;16.60;99.70
25360;DHT22;13311;51.386;0.016;2023-05-07T04:08:24;16.60;99.60
25360;DHT22;13311;51.386;0.016;2023-05-07T04:13:25;16.70;99.20
25360;DHT22;13311;51.386;0.016;2023-05-07T04:18:25;16.60;99.20
25360;DHT22;13311;51.386;0.016;2023-05-07T04:23:26;16.70;99.10
25360;DHT22;13311;51.386;0.016;2023-05-07T04:28:27;16.60;99.00
25360;DHT22;13311;51.386;0.016;2023-05-07T04:33:28;16.60;99.10
25360;DHT22;13311;51.386;0.016;2023-05-07T04:38:29;16.60;99.00
25360;DHT22;13311;51.386;0.016;2023-05-07T04:43:31;16.60;99.20
25360;DHT22;13311;51.386;0.016;2023-05-07T04:48:32;16.60;99.10
25360;DHT22;13311;51.386;0.016;2023-05-07T04:53:33;16.60;99.20
25360;DHT22;13311;51.386;0.016;2023-05-07T04:58:34;16.60;99.20
25360;DHT22;13311;51.386;0.016;2023-05-07T05:03:35;16.60;99.20
25360;DHT22;13311;51.386;0.016;2023-05-07T05:08:35;16.60;99.10
25360;DHT22;13311;51.386;0.016;2023-05-07T05:13:36;16.60;99.10
25360;DHT22;13311;51.386;0.016;2023-05-07T05:18:37;16.60;99.00
25360;DHT22;13311;51.386;0.016;2023-05-07T05:23:38;16.60;99.20
25360;DHT22;13311;51.386;0.016;2023-05-07T05:28:39;16.60;99.30
25360;DHT22;13311;51.386;0.016;2023-05-07T05:33:40;16.60;99.10
25360;DHT22;13311;51.386;0.016;2023-05-07T05:38:40;16.60;99.40
25360;DHT22;13311;51.386;0.016;2023-05-07T05:43:41;16.70;99.30
25360;DHT22;13311;51.386;0.016;2023-05-07T05:48:42;16.70;99.20
25360;DHT22;13311;51.386;0.016;2023-05-07T05:53:42;16.70;99.10
25360;DHT22;13311;51.386;0.016;2023-05-07T05:58:43;16.80;99.10
25360;DHT22;13311;51.386;0.016;2023-05-07T06:03:44;16.80;99.20
25360;DHT22;13311;51.386;0.016;2023-05-07T06:08:45;16.80;99.00
25360;DHT22;13311;51.386;0.016;2023-05-07T06:13:46;16.80;99.20
25360;DHT22;13311;51.386;0.016;2023-05-07T06:18:46;16.90;99.10
25360;DHT22;13311;51.386;0.016;2023-05-07T06:23:47;16.90;99.00
25360;DHT22;13311;51.386;0.016;2023-05-07T06:28:48;16.90;99.10
25360;DHT22;13311;51.386;0.016;2023-05-07T06:33:49;16.90;99.30
25360;DHT22;13311;51.386;0.016;2023-05-07T06:38:50;17.00;99.30
25360;DHT22;13311;51.386;0.016;2023-05-07T06:43:50;17.10;99.30
25360;DHT22;13311;51.386;0.016;2023-05-07T06:48:51;17.20;99.10
25360;DHT22;13311;51.386;0.016;2023-05-07T06:53:52;17.30;98.90
25360;DHT22;13311;51.386;0.016;2023-05-07T06:58:53;17.30;98.80
25360;DHT22;13311;51.386;0.016;2023-05-07T07:03:54;17.30;98.60
25360;DHT22;13311;51.386;0.016;2023-05-07T07:08:55;17.30;98.90
25360;DHT22;13311;51.386;0.016;2023-05-07T07:13:56;17.20;99.10
25360;DHT22;13311;51.386;0.016;2023-05-07T07:18:56;17.30;99.30
25360;DHT22;13311;51.386;0.016;2023-05-07T07:23:57;17.30;99.20
25360;DHT22;13311;51.386;0.016;2023-05-07T07:28:58;17.30;98.90
25360;DHT22;13311;51.386;0.016;2023-05-07T07:33:58;17.40;98.80
25360;DHT22;13311;51.386;0.016;2023-05-07T07:38:59;17.50;98.60
25360;DHT22;13311;51.386;0.016;2023-05-07T07:44:00;17.40;98.50
25360;DHT22;13311;51.386;0.016;2023-05-07T07:49:01;17.50;98.50
25360;DHT22;13311;51.386;0.016;2023-05-07T07:54:02;17.60;98.50
25360;DHT22;13311;51.386;0.016;2023-05-07T07:59:03;17.70;98.20
25360;DHT22;13311;51.386;0.016;2023-05-07T08:04:04;17.60;98.40
25360;DHT22;13311;51.386;0.016;2023-05-07T08:09:05;17.60;98.30
25360;DHT22;13311;51.386;0.016;2023-05-07T08:14:06;17.70;98.50
25360;DHT22;13311;51.386;0.016;2023-05-07T08:19:07;17.80;98.40
25360;DHT22;13311;51.386;0.016;2023-05-07T08:24:07;17.90;98.30
25360;DHT22;13311;51.386;0.016;2023-05-07T08:29:08;18.00;98.20
25360;DHT22;13311;51.386;0.016;2023-05-07T08:34:09;18.10;98.10
25360;DHT22;13311;51.386;0.016;2023-05-07T08:39:10;18.10;97.80
25360;DHT22;13311;51.386;0.016;2023-05-07T08:44:12;18.10;97.70
25360;DHT22;13311;51.386;0.016;2023-05-07T08:49:14;18.30;97.80
25360;DHT22;13311;51.386;0.016;2023-05-07T08:54:16;18.40;97.60
25360;DHT22;13311;51.386;0.016;2023-05-07T08:59:18;18.50;97.80
25360;DHT22;13311;51.386;0.016;2023-05-07T09:04:18;18.70;97.20
25360;DHT22;13311;51.386;0.016;2023-05-07T09:09:21;18.90;97.00
25360;DHT22;13311;51.386;0.016;2023-05-07T09:14:22;19.20;96.40
25360;DHT22;13311;51.386;0.016;2023-05-07T09:19:24;19.40;96.80
25360;DHT22;13311;51.386;0.016;2023-05-07T09:24:25;19.70;96.60
25360;DHT22;13311;51.386;0.016;2023-05-07T09:29:26;20.00;96.20
25360;DHT22;13311;51.386;0.016;2023-05-07T09:34:29;20.70;96.00
25360;DHT22;13311;51.386;0.016;2023-05-07T09:39:45;21.50;94.00
25360;DHT22;13311;51.386;0.016;2023-05-07T09:44:47;21.70;93.30
25360;DHT22;13311;51.386;0.016;2023-05-07T09:49:48;22.00;92.00
25360;DHT22;13311;51.386;0.016;2023-05-07T09:54:50;21.90;91.90
25360;DHT22;13311;51.386;0.016;2023-05-07T09:59:52;21.90;91.20
25360;DHT22;13311;51.386;0.016;2023-05-07T10:04:54;21.80;91.40
25360;DHT22;13311;51.386;0.016;2023-05-07T10:09:56;21.60;91.40
25360;DHT22;13311;51.386;0.016;2023-05-07T10:14:58;21.50;91.80
25360;DHT22;13311;51.386;0.016;2023-05-07T10:19:58;21.50;91.60
25360;DHT22;13311;51.386;0.016;2023-05-07T10:24:59;21.40;92.10
25360;DHT22;13311;51.386;0.016;2023-05-07T10:35:30;21.50;91.90
25360;DHT22;13311;51.386;0.016;2023-05-07T10:40:33;21.40;91.70
25360;DHT22;13311;51.386;0.016;2023-05-07T10:45:34;21.40;91.70
25360;DHT22;13311;51.386;0.016;2023-05-07T10:50:35;21.40;91.70
25360;DHT22;13311;51.386;0.016;2023-05-07T10:55:37;21.40;91.80
25360;DHT22;13311;51.386;0.016;2023-05-07T11:05:38;21.30;91.60
25360;DHT22;13311;51.386;0.016;2023-05-07T11:15:54;21.30;91.40
25360;DHT22;13311;51.386;0.016;2023-05-07T11:20:59;21.40;91.70
25360;DHT22;13311;51.386;0.016;2023-05-07T11:31:05;21.60;91.60
25360;DHT22;13311;51.386;0.016;2023-05-07T11:36:08;21.70;91.30
25360;DHT22;13311;51.386;0.016;2023-05-07T11:41:09;21.60;91.10
25360;DHT22;13311;51.386;0.016;2023-05-07T11:46:11;21.60;91.10
25360;DHT22;13311;51.386;0.016;2023-05-07T11:51:19;21.60;91.00
25360;DHT22;13311;51.386;0.016;2023-05-07T11:56:20;21.70;91.20
25360;DHT22;13311;51.386;0.016;2023-05-07T12:01:21;21.80;91.20
25360;DHT22;13311;51.386;0.016;2023-05-07T12:06:22;21.80;90.90
25360;DHT22;13311;51.386;0.016;2023-05-07T12:11:24;21.80;90.90
25360;DHT22;13311;51.386;0.016;2023-05-07T12:16:26;21.90;91.00
25360;DHT22;13311;51.386;0.016;2023-05-07T12:21:27;22.00;91.00
25360;DHT22;13311;51.386;0.016;2023-05-07T12:26:28;22.10;90.80
25360;DHT22;13311;51.386;0.016;2023-05-07T12:31:29;22.10;90.70
25360;DHT22;13311;51.386;0.016;2023-05-07T12:36:40;22.10;90.70
25360;DHT22;13311;51.386;0.016;2023-05-07T12:41:57;22.20;90.40
25360;DHT22;13311;51.386;0.016;2023-05-07T12:47:02;22.40;90.50
25360;DHT22;13311;51.386;0.016;2023-05-07T12:52:03;22.60;90.40
25360;DHT22;13311;51.386;0.016;2023-05-07T12:57:08;22.70;89.00
25360;DHT22;13311;51.386;0.016;2023-05-07T13:02:09;22.80;90.00
25360;DHT22;13311;51.386;0.016;2023-05-07T13:07:10;22.90;88.90
25360;DHT22;13311;51.386;0.016;2023-05-07T13:12:11;23.00;89.30
25360;DHT22;13311;51.386;0.016;2023-05-07T13:17:11;23.20;88.10
25360;DHT22;13311;51.386;0.016;2023-05-07T13:22:12;23.30;88.20
25360;DHT22;13311;51.386;0.016;2023-05-07T13:27:13;23.40;87.30
25360;DHT22;13311;51.386;0.016;2023-05-07T13:32:14;23.50;86.00
25360;DHT22;13311;51.386;0.016;2023-05-07T13:37:14;23.60;85.70
25360;DHT22;13311;51.386;0.016;2023-05-07T13:42:16;23.80;86.30
25360;DHT22;13311;51.386;0.016;2023-05-07T13:47:17;23.80;86.00
25360;DHT22;13311;51.386;0.016;2023-05-07T13:52:17;23.80;84.00
25360;DHT22;13311;51.386;0.016;2023-05-07T13:57:19;23.90;83.90
25360;DHT22;13311;51.386;0.016;2023-05-07T14:02:20;23.90;84.90
25360;DHT22;13311;51.386;0.016;2023-05-07T14:07:20;23.90;86.40
25360;DHT22;13311;51.386;0.016;2023-05-07T14:12:21;23.80;87.50
25360;DHT22;13311;51.386;0.016;2023-05-07T14:17:22;23.60;85.90
25360;DHT22;13311;51.386;0.016;2023-05-07T14:22:25;23.50;87.80
25360;DHT22;13311;51.386;0.016;2023-05-07T14:27:26;23.50;86.00
25360;DHT22;13311;51.386;0.016;2023-05-07T14:32:26;23.50;86.80
25360;DHT22;13311;51.386;0.016;2023-05-07T14:37:27;23.50;87.20
25360;DHT22;13311;51.386;0.016;2023-05-07T14:42:28;23.60;85.70
25360;DHT22;13311;51.386;0.016;2023-05-07T14:47:29;23.60;87.10
25360;DHT22;13311;51.386;0.016;2023-05-07T14:52:29;23.60;83.00
25360;DHT22;13311;51.386;0.016;2023-05-07T14:57:30;23.50;85.80
25360;DHT22;13311;51.386;0.016;2023-05-07T15:02:35;23.50;85.20
25360;DHT22;13311;51.386;0.016;2023-05-07T15:07:36;23.50;86.20
25360;DHT22;13311;51.386;0.016;2023-05-07T15:12:36;23.20;81.90
25360;DHT22;13311;51.386;0.016;2023-05-07T15:17:37;23.20;82.70
25360;DHT22;13311;51.386;0.016;2023-05-07T15:22:38;23.20;81.60
25360;DHT22;13311;51.386;0.016;2023-05-07T15:27:39;23.30;80.50
25360;DHT22;13311;51.386;0.016;2023-05-07T15:32:40;23.30;80.90
25360;DHT22;13311;51.386;0.016;2023-05-07T15:37:41;23.10;76.80
25360;DHT22;13311;51.386;0.016;2023-05-07T15:42:46;23.20;79.90
25360;DHT22;13311;51.386;0.016;2023-05-07T15:47:47;23.20;79.70
25360;DHT22;13311;51.386;0.016;2023-05-07T15:52:48;23.20;80.20
25360;DHT22;13311;51.386;0.016;2023-05-07T15:57:50;23.20;78.20
25360;DHT22;13311;51.386;0.016;2023-05-07T16:02:51;23.00;77.30
25360;DHT22;13311;51.386;0.016;2023-05-07T16:07:51;23.10;78.30
25360;DHT22;13311;51.386;0.016;2023-05-07T16:12:52;23.20;80.60
25360;DHT22;13311;51.386;0.016;2023-05-07T16:17:53;23.30;84.30
25360;DHT22;13311;51.386;0.016;2023-05-07T16:22:57;23.40;80.80
25360;DHT22;13311;51.386;0.016;2023-05-07T16:27:58;23.30;81.10
25360;DHT22;13311;51.386;0.016;2023-05-07T16:32:59;23.40;86.00
25360;DHT22;13311;51.386;0.016;2023-05-07T16:37:59;23.30;79.60
25360;DHT22;13311;51.386;0.016;2023-05-07T16:43:00;23.40;84.10
25360;DHT22;13311;51.386;0.016;2023-05-07T16:48:03;23.40;81.60
25360;DHT22;13311;51.386;0.016;2023-05-07T16:53:04;23.50;85.50
25360;DHT22;13311;51.386;0.016;2023-05-07T16:58:07;23.50;85.00
25360;DHT22;13311;51.386;0.016;2023-05-07T17:03:09;23.10;76.90
25360;DHT22;13311;51.386;0.016;2023-05-07T17:08:09;22.80;76.60
25360;DHT22;13311;51.386;0.016;2023-05-07T17:13:11;22.70;77.20
25360;DHT22;13311;51.386;0.016;2023-05-07T17:18:13;22.80;78.20
25360;DHT22;13311;51.386;0.016;2023-05-07T17:23:13;22.70;77.60
25360;DHT22;13311;51.386;0.016;2023-05-07T17:28:14;22.60;77.40
25360;DHT22;13311;51.386;0.016;2023-05-07T17:33:15;22.50;77.30
25360;DHT22;13311;51.386;0.016;2023-05-07T17:38:16;22.40;77.40
25360;DHT22;13311;51.386;0.016;2023-05-07T17:43:17;22.20;77.70
25360;DHT22;13311;51.386;0.016;2023-05-07T17:48:18;22.10;78.70
25360;DHT22;13311;51.386;0.016;2023-05-07T17:53:19;22.10;81.30
25360;DHT22;13311;51.386;0.016;2023-05-07T17:58:23;22.00;79.60
25360;DHT22;13311;51.386;0.016;2023-05-07T18:03:25;22.10;79.80
25360;DHT22;13311;51.386;0.016;2023-05-07T18:08:27;22.00;79.60
25360;DHT22;13311;51.386;0.016;2023-05-07T18:13:28;21.90;80.70
25360;DHT22;13311;51.386;0.016;2023-05-07T18:18:29;21.90;81.40
25360;DHT22;13311;51.386;0.016;2023-05-07T18:23:31;21.60;81.30
25360;DHT22;13311;51.386;0.016;2023-05-07T18:28:34;21.50;82.40
25360;DHT22;13311;51.386;0.016;2023-05-07T18:33:35;21.50;82.60
25360;DHT22;13311;51.386;0.016;2023-05-07T18:38:36;21.50;83.10
25360;DHT22;13311;51.386;0.016;2023-05-07T18:43:39;21.50;83.40
25360;DHT22;13311;51.386;0.016;2023-05-07T18:48:40;21.40;83.70
25360;DHT22;13311;51.386;0.016;2023-05-07T18:53:41;21.40;84.10
25360;DHT22;13311;51.386;0.016;2023-05-07T18:58:41;21.50;84.00
25360;DHT22;13311;51.386;0.016;2023-05-07T19:03:42;21.40;84.00
25360;DHT22;13311;51.386;0.016;2023-05-07T19:08:43;21.40;84.00
25360;DHT22;13311;51.386;0.016;2023-05-07T19:13:43;21.40;84.30
25360;DHT22;13311;51.386;0.016;2023-05-07T19:18:44;21.20;84.90
25360;DHT22;13311;51.386;0.016;2023-05-07T19:23:45;21.10;85.60
25360;DHT22;13311;51.386;0.016;2023-05-07T19:28:46;21.00;86.50
25360;DHT22;13311;51.386;0.016;2023-05-07T19:33:47;21.00;87.00
25360;DHT22;13311;51.386;0.016;2023-05-07T19:38:47;20.90;87.40
25360;DHT22;13311;51.386;0.016;2023-05-07T19:43:52;20.80;87.90
25360;DHT22;13311;51.386;0.016;2023-05-07T19:48:52;20.70;88.30
25360;DHT22;13311;51.386;0.016;2023-05-07T19:53:53;20.60;88.90
25360;DHT22;13311;51.386;0.016;2023-05-07T19:58:54;20.50;89.00
25360;DHT22;13311;51.386;0.016;2023-05-07T20:03:55;20.40;89.50
25360;DHT22;13311;51.386;0.016;2023-05-07T20:08:56;20.30;90.00
25360;DHT22;13311;51.386;0.016;2023-05-07T20:13:56;20.20;90.10
25360;DHT22;13311;51.386;0.016;2023-05-07T20:18:57;20.10;90.40
25360;DHT22;13311;51.386;0.016;2023-05-07T20:23:58;20.00;90.50
25360;DHT22;13311;51.386;0.016;2023-05-07T20:28:59;19.80;90.60
25360;DHT22;13311;51.386;0.016;2023-05-07T20:33:59;19.70;91.00
25360;DHT22;13311;51.386;0.016;2023-05-07T20:39:01;19.60;91.30
25360;DHT22;13311;51.386;0.016;2023-05-07T20:44:01;19.50;91.80
25360;DHT22;13311;51.386;0.016;2023-05-07T20:49:02;19.40;92.60
25360;DHT22;13311;51.386;0.016;2023-05-07T20:54:03;19.20;92.90
25360;DHT22;13311;51.386;0.016;2023-05-07T20:59:04;19.10;93.30
25360;DHT22;13311;51.386;0.016;2023-05-07T21:04:04;19.00;93.70
25360;DHT22;13311;51.386;0.016;2023-05-07T21:09:05;19.00;93.80
25360;DHT22;13311;51.386;0.016;2023-05-07T21:14:07;18.90;93.80
25360;DHT22;13311;51.386;0.016;2023-05-07T21:19:07;18.90;93.90
25360;DHT22;13311;51.386;0.016;2023-05-07T21:24:08;18.80;94.10
25360;DHT22;13311;51.386;0.016;2023-05-07T21:29:10;18.80;94.10
25360;DHT22;13311;51.386;0.016;2023-05-07T21:34:11;18.60;94.30
25360;DHT22;13311;51.386;0.016;2023-05-07T21:39:11;18.50;94.40
25360;DHT22;13311;51.386;0.016;2023-05-07T21:44:12;18.50;94.50
25360;DHT22;13311;51.386;0.016;2023-05-07T21:49:13;18.40;94.60
25360;DHT22;13311;51.386;0.016;2023-05-07T21:54:14;18.30;94.70
25360;DHT22;13311;51.386;0.016;2023-05-07T21:59:15;18.20;94.80
25360;DHT22;13311;51.386;0.016;2023-05-07T22:04:15;18.10;95.00
25360;DHT22;13311;51.386;0.016;2023-05-07T22:09:16;18.00;95.20
25360;DHT22;13311;51.386;0.016;2023-05-07T22:14:17;18.00;95.40
25360;DHT22;13311;51.386;0.016;2023-05-07T22:19:18;17.90;95.40
25360;DHT22;13311;51.386;0.016;2023-05-07T22:24:18;17.90;95.50
25360;DHT22;13311;51.386;0.016;2023-05-07T22:29:19;17.80;95.50
25360;DHT22;13311;51.386;0.016;2023-05-07T22:34:22;17.80;95.50
25360;DHT22;13311;51.386;0.016;2023-05-07T22:39:23;17.70;95.60
25360;DHT22;13311;51.386;0.016;2023-05-07T22:44:24;17.70;95.70
25360;DHT22;13311;51.386;0.016;2023-05-07T22:49:24;17.50;95.90
25360;DHT22;13311;51.386;0.016;2023-05-07T22:54:25;17.50;96.10
25360;DHT22;13311;51.386;0.016;2023-05-07T22:59:26;17.50;96.00
25360;DHT22;13311;51.386;0.016;2023-05-07T23:04:27;17.40;96.00
25360;DHT22;13311;51.386;0.016;2023-05-07T23:09:27;17.40;96.00
25360;DHT22;13311;51.386;0.016;2023-05-07T23:14:28;17.30;96.30
25360;DHT22;13311;51.386;0.016;2023-05-07T23:19:29;17.30;96.40
25360;DHT22;13311;51.386;0.016;2023-05-07T23:24:29;17.20;96.30
25360;DHT22;13311;51.386;0.016;2023-05-07T23:29:30;17.20;96.30
25360;DHT22;13311;51.386;0.016;2023-05-07T23:34:31;17.20;96.40
25360;DHT22;13311;51.386;0.016;2023-05-07T23:39:32;17.10;96.50
25360;DHT22;13311;51.386;0.016;2023-05-07T23:44:33;17.00;96.50
25360;DHT22;13311;51.386;0.016;2023-05-07T23:49:33;17.00;96.60
25360;DHT22;13311;51.386;0.016;2023-05-07T23:54:34;17.00;96.40
25360;DHT22;13311;51.386;0.016;2023-05-07T23:59:35;17.00;96.40
